^^
Saratoga-Weather Station Historical Data
Daily Summary for October 15, 2021 Units:  English    Metric   Both
Daily Weekly Monthly Yearly Custom
  High: Low: Average:
Temperature: 59.2 °F 37.8 °F 48.7 °F
Dew Point: 51.3 °F 36.7 °F 45.3 °F
Humidity: 97% 71% 88%
Wind Speed: 8.1mph 0mph 0.9mph
Wind Gust: 10mph - -
Wind- - SW
Pressure: 30.2 in 30.1 in -
Precipitation: 0 in    
Historical Graphs
 
 
Tabular Data for October 15, 2021
Time Temperature Dew Point Pressure Wind Wind Speed Wind Gust Humidity Rainfall Rate (Hourly) solar
00:03 43.7 °F 42.4 °F 30.2 in Calm     95% 0 in 0 W/m2
00:08 43.5 °F 42.3 °F 30.2 in Calm     95% 0 in 0 W/m2
00:13 43.3 °F 42.1 °F 30.2 in Calm     95% 0 in 0 W/m2
00:18 43.3 °F 42.1 °F 30.2 in Calm     95% 0 in 0 W/m2
00:23 43.3 °F 42.1 °F 30.2 in Calm     95% 0 in 0 W/m2
00:28 43.2 °F 41.9 °F 30.2 in Calm     95% 0 in 0 W/m2
00:33 43.2 °F 41.9 °F 30.2 in Calm     95% 0 in 0 W/m2
00:38 43.2 °F 41.9 °F 30.2 in Calm     95% 0 in 0 W/m2
00:43 43.2 °F 41.9 °F 30.2 in Calm     95% 0 in 0 W/m2
00:48 43.2 °F 41.9 °F 30.2 in Calm     95% 0 in 0 W/m2
00:53 43 °F 41.7 °F 30.2 in Calm     95% 0 in 0 W/m2
00:58 43.2 °F 42.1 °F 30.2 in Calm     96% 0 in 0 W/m2
01:03 43 °F 41.7 °F 30.2 in Calm     95% 0 in 0 W/m2
01:08 43 °F 41.7 °F 30.2 in Calm     95% 0 in 0 W/m2
01:13 43 °F 41.7 °F 30.2 in Calm     95% 0 in 0 W/m2
01:18 42.6 °F 41.4 °F 30.1 in Calm     95% 0 in 0 W/m2
01:23 42.6 °F 41.4 °F 30.1 in Calm     95% 0 in 0 W/m2
01:28 42.4 °F 41.2 °F 30.1 in Calm     95% 0 in 0 W/m2
01:33 42.3 °F 41 °F 30.1 in Calm     95% 0 in 0 W/m2
01:38 42.3 °F 41.2 °F 30.1 in Calm     96% 0 in 0 W/m2
01:43 42.3 °F 41 °F 30.1 in Calm     95% 0 in 0 W/m2
01:48 42.3 °F 41 °F 30.1 in Calm     95% 0 in 0 W/m2
01:53 42.1 °F 40.8 °F 30.1 in Calm     95% 0 in 0 W/m2
01:58 42.1 °F 41 °F 30.1 in Calm     96% 0 in 0 W/m2
02:03 42.1 °F 41 °F 30.1 in Calm     96% 0 in 0 W/m2
02:08 42.1 °F 41 °F 30.1 in Calm     96% 0 in 0 W/m2
02:13 42.1 °F 41 °F 30.1 in Calm     96% 0 in 0 W/m2
02:18 42.1 °F 41 °F 30.1 in Calm     96% 0 in 0 W/m2
02:23 42.1 °F 41 °F 30.1 in Calm     96% 0 in 0 W/m2
02:28 41.9 °F 40.8 °F 30.1 in Calm     96% 0 in 0 W/m2
02:33 41.9 °F 40.8 °F 30.1 in Calm     96% 0 in 0 W/m2
02:38 41.7 °F 40.6 °F 30.1 in Calm     96% 0 in 0 W/m2
02:43 41.7 °F 40.6 °F 30.1 in Calm     96% 0 in 0 W/m2
02:48 41.7 °F 40.6 °F 30.1 in Calm     96% 0 in 0 W/m2
02:53 41.7 °F 40.6 °F 30.1 in Calm     96% 0 in 0 W/m2
02:58 41.5 °F 40.5 °F 30.1 in Calm     96% 0 in 0 W/m2
03:03 41.5 °F 40.5 °F 30.1 in Calm     96% 0 in 0 W/m2
03:08 41.4 °F 40.3 °F 30.1 in Calm     96% 0 in 0 W/m2
03:13 41.4 °F 40.3 °F 30.1 in Calm     96% 0 in 0 W/m2
03:18 41.4 °F 40.3 °F 30.1 in Calm     96% 0 in 0 W/m2
03:23 41.2 °F 40.1 °F 30.1 in Calm     96% 0 in 0 W/m2
03:28 41 °F 39.9 °F 30.1 in Calm     96% 0 in 0 W/m2
03:33 41 °F 39.9 °F 30.1 in Calm     96% 0 in 0 W/m2
03:38 41 °F 39.9 °F 30.1 in Calm     96% 0 in 0 W/m2
03:43 41 °F 39.9 °F 30.1 in Calm     96% 0 in 0 W/m2
03:48 41.2 °F 40.1 °F 30.1 in Calm     96% 0 in 0 W/m2
03:53 41.2 °F 40.1 °F 30.1 in Calm     96% 0 in 0 W/m2
03:58 41.2 °F 40.1 °F 30.1 in Calm     96% 0 in 0 W/m2
04:03 41 °F 39.9 °F 30.1 in Calm     96% 0 in 0 W/m2
04:08 40.8 °F 39.7 °F 30.1 in Calm     96% 0 in 0 W/m2
04:13 40.8 °F 39.7 °F 30.1 in Calm     96% 0 in 0 W/m2
04:18 40.6 °F 39.6 °F 30.1 in Calm     96% 0 in 0 W/m2
04:23 40.6 °F 39.6 °F 30.1 in Calm     96% 0 in 0 W/m2
04:28 40.5 °F 39.4 °F 30.1 in Calm     96% 0 in 0 W/m2
04:33 40.5 °F 39.4 °F 30.1 in Calm     96% 0 in 0 W/m2
04:38 40.3 °F 39.2 °F 30.1 in Calm     96% 0 in 0 W/m2
04:43 40.5 °F 39.4 °F 30.1 in Calm     96% 0 in 0 W/m2
04:48 40.6 °F 39.6 °F 30.1 in WSW 0.9 mph 2 mph 96% 0 in 0 W/m2
04:53 40.6 °F 39.6 °F 30.1 in Calm   1 mph 96% 0 in 0 W/m2
04:58 40.8 °F 39.7 °F 30.1 in Calm   2 mph 96% 0 in 0 W/m2
05:03 40.8 °F 39.7 °F 30.1 in Calm     96% 0 in 0 W/m2
05:08 40.6 °F 39.6 °F 30.1 in Calm     96% 0 in 0 W/m2
05:13 40.6 °F 39.6 °F 30.1 in Calm     96% 0 in 0 W/m2
05:18 40.5 °F 39.4 °F 30.1 in Calm   1 mph 96% 0 in 0 W/m2
05:23 40.5 °F 39.4 °F 30.1 in Calm     96% 0 in 0 W/m2
05:29 40.5 °F 39.4 °F 30.1 in Calm     96% 0 in 0 W/m2
05:34 40.3 °F 39.2 °F 30.1 in Calm     96% 0 in 0 W/m2
05:39 40.3 °F 39.2 °F 30.1 in SSW 0.9 mph 2 mph 96% 0 in 0 W/m2
05:44 40.3 °F 39.2 °F 30.1 in South 2 mph 2 mph 96% 0 in 0 W/m2
05:49 40.3 °F 39.2 °F 30.1 in Calm   1 mph 96% 0 in 0 W/m2
05:54 40.3 °F 39.2 °F 30.1 in Calm     96% 0 in 0 W/m2
05:59 40.1 °F 39 °F 30.1 in Calm   1 mph 96% 0 in 0 W/m2
06:04 39.9 °F 38.8 °F 30.1 in Calm     96% 0 in 0 W/m2
06:09 39.9 °F 38.8 °F 30.1 in Calm   1 mph 96% 0 in 0 W/m2
06:14 39.7 °F 38.7 °F 30.1 in Calm     96% 0 in 0 W/m2
06:19 39.6 °F 38.5 °F 30.1 in Calm     96% 0 in 0 W/m2
06:24 39.4 °F 38.3 °F 30.1 in Calm     96% 0 in 0 W/m2
06:29 39.4 °F 38.3 °F 30.1 in Calm     96% 0 in 0 W/m2
06:34 39.2 °F 38.1 °F 30.1 in Calm     96% 0 in 0 W/m2
06:39 39.2 °F 38.1 °F 30.1 in Calm     96% 0 in 0 W/m2
06:44 39 °F 37.9 °F 30.1 in Calm     96% 0 in 0 W/m2
06:49 39 °F 37.9 °F 30.1 in Calm     96% 0 in 0 W/m2
06:54 39 °F 37.9 °F 30.1 in Calm     96% 0 in 0 W/m2
06:59 38.8 °F 37.8 °F 30.1 in Calm     96% 0 in 0 W/m2
07:04 38.8 °F 37.8 °F 30.1 in Calm     96% 0 in 0 W/m2
07:09 38.7 °F 37.6 °F 30.1 in Calm     96% 0 in 0 W/m2
07:14 38.7 °F 37.6 °F 30.1 in Calm     96% 0 in 0 W/m2
07:19 38.5 °F 37.4 °F 30.1 in Calm     96% 0 in 0 W/m2
07:24 38.5 °F 37.4 °F 30.1 in Calm     96% 0 in 0 W/m2
07:29 38.5 °F 37.4 °F 30.1 in Calm   2 mph 96% 0 in 0 W/m2
07:34 38.5 °F 37.4 °F 30.1 in Calm     96% 0 in 0 W/m2
07:39 38.3 °F 37.2 °F 30.1 in Calm   1 mph 96% 0 in 0 W/m2
07:44 38.1 °F 37 °F 30.1 in Calm     96% 0 in 0 W/m2
07:49 38.1 °F 37 °F 30.1 in Calm     96% 0 in 0 W/m2
07:54 37.9 °F 36.9 °F 30.1 in Calm     96% 0 in 0 W/m2
07:59 37.9 °F 36.9 °F 30.1 in Calm     96% 0 in 5 W/m2
08:04 37.9 °F 36.9 °F 30.1 in Calm     96% 0 in 9 W/m2
08:09 37.8 °F 36.7 °F 30.1 in Calm     96% 0 in 11 W/m2
08:14 37.8 °F 36.7 °F 30.1 in Calm     96% 0 in 14 W/m2
08:19 37.8 °F 36.7 °F 30.1 in Calm     96% 0 in 16 W/m2
08:24 37.9 °F 36.9 °F 30.1 in Calm     96% 0 in 19 W/m2
08:29 37.9 °F 36.9 °F 30.1 in Calm     96% 0 in 26 W/m2
08:34 38.1 °F 37 °F 30.1 in Calm     96% 0 in 30 W/m2
08:39 38.5 °F 37.8 °F 30.1 in Calm     97% 0 in 32 W/m2
08:44 38.8 °F 38.1 °F 30.1 in Calm     97% 0 in 33 W/m2
08:49 38.8 °F 38.1 °F 30.1 in Calm     97% 0 in 44 W/m2
08:54 39 °F 38.3 °F 30.1 in Calm     97% 0 in 56 W/m2
08:59 39.4 °F 38.7 °F 30.1 in Calm     97% 0 in 58 W/m2
09:04 39.6 °F 38.8 °F 30.1 in Calm     97% 0 in 67 W/m2
09:09 39.7 °F 39 °F 30.1 in Calm     97% 0 in 83 W/m2
09:14 40.1 °F 39.4 °F 30.1 in Calm     97% 0 in 165 W/m2
09:19 40.6 °F 39.9 °F 30.1 in Calm     97% 0 in 204 W/m2
09:24 41.2 °F 40.5 °F 30.1 in ENE 0.9 mph 3 mph 97% 0 in 190 W/m2
09:29 41.5 °F 40.8 °F 30.1 in Calm   2 mph 97% 0 in 132 W/m2
09:34 41.7 °F 41 °F 30.1 in Calm   3 mph 97% 0 in 67 W/m2
09:39 42.1 °F 41.4 °F 30.1 in Calm     97% 0 in 62 W/m2
09:44 42.3 °F 41.5 °F 30.1 in Calm     97% 0 in 95 W/m2
09:49 42.4 °F 41.7 °F 30.1 in East 2 mph 3 mph 97% 0 in 113 W/m2
09:54 42.8 °F 42.1 °F 30.1 in ESE 0.9 mph 3 mph 97% 0 in 127 W/m2
09:59 43.2 °F 42.4 °F 30.1 in East 2.9 mph 3 mph 97% 0 in 125 W/m2
10:04 43.3 °F 42.6 °F 30.1 in ESE 2 mph 3 mph 97% 0 in 116 W/m2
10:09 43.3 °F 42.6 °F 30.1 in East 0.9 mph 3 mph 97% 0 in 118 W/m2
10:14 43.5 °F 42.8 °F 30.1 in East 2 mph 3 mph 97% 0 in 134 W/m2
10:19 43.7 °F 43 °F 30.1 in East 0.9 mph 4 mph 97% 0 in 153 W/m2
10:24 44.1 °F 43.3 °F 30.1 in NE 0.9 mph 2 mph 97% 0 in 156 W/m2
10:29 44.2 °F 43.5 °F 30.1 in North 0.9 mph 4 mph 97% 0 in 160 W/m2
10:34 44.2 °F 43.5 °F 30.1 in Calm   1 mph 97% 0 in 160 W/m2
10:39 44.4 °F 43.7 °F 30.1 in Calm     97% 0 in 200 W/m2
10:44 45 °F 44.2 °F 30.1 in Calm     97% 0 in 139 W/m2
10:49 45.1 °F 44.4 °F 30.1 in Calm     97% 0 in 229 W/m2
10:54 45.7 °F 45 °F 30.1 in Calm     97% 0 in 181 W/m2
10:59 46 °F 45.3 °F 30.1 in Calm     97% 0 in 257 W/m2
11:04 46.4 °F 45.7 °F 30.1 in Calm   1 mph 97% 0 in 348 W/m2
11:09 46.8 °F 46 °F 30.1 in Calm     97% 0 in 213 W/m2
11:14 47.1 °F 46.4 °F 30.1 in Calm     97% 0 in 311 W/m2
11:19 47.8 °F 46.9 °F 30.1 in Calm     97% 0 in 241 W/m2
11:24 48.6 °F 47.7 °F 30.1 in Calm     97% 0 in 232 W/m2
11:29 49.1 °F 48.2 °F 30.1 in Calm   1 mph 97% 0 in 260 W/m2
11:34 49.8 °F 48.7 °F 30.1 in Calm   1 mph 96% 0 in 287 W/m2
11:39 50.7 °F 49.3 °F 30.1 in NW 0.9 mph 4 mph 95% 0 in 378 W/m2
11:44 51.8 °F 49.3 °F 30.1 in NNW 0.9 mph 2 mph 91% 0 in 410 W/m2
11:50 52.5 °F 49.1 °F 30.1 in WNW 2 mph 3 mph 88% 0 in 185 W/m2
11:55 52.9 °F 48.6 °F 30.1 in WNW 2 mph 2 mph 85% 0 in 422 W/m2
12:00 53.1 °F 48.7 °F 30.1 in West 0.9 mph 3 mph 85% 0 in 149 W/m2
12:05 53.6 °F 48.2 °F 30.1 in Calm   3 mph 82% 0 in 156 W/m2
12:10 54 °F 48.2 °F 30.1 in NNE 0.9 mph 2 mph 81% 0 in 165 W/m2
12:15 54.3 °F 48.2 °F 30.1 in NNW 0.9 mph 4 mph 80% 0 in 167 W/m2
12:20 54.7 °F 48.4 °F 30.1 in Calm   1 mph 79% 0 in 163 W/m2
12:25 54.9 °F 48.6 °F 30.1 in Calm   4 mph 79% 0 in 176 W/m2
12:30 55 °F 48.6 °F 30.1 in Calm   2 mph 79% 0 in 207 W/m2
12:35 55.2 °F 48.7 °F 30.1 in NW 2.9 mph 3 mph 79% 0 in 246 W/m2
12:40 55.6 °F 48.6 °F 30.1 in WNW 2 mph 5 mph 77% 0 in 246 W/m2
12:45 55.8 °F 48.4 °F 30.1 in West 2 mph 4 mph 76% 0 in 202 W/m2
12:50 55.8 °F 48.4 °F 30.1 in NW 2.9 mph 5 mph 76% 0 in 207 W/m2
12:55 55.8 °F 48.7 °F 30.1 in Calm   3 mph 77% 0 in 192 W/m2
13:00 55.8 °F 48.7 °F 30.1 in WSW 4 mph 5 mph 77% 0 in 197 W/m2
13:05 55.8 °F 48.7 °F 30.1 in West 0.9 mph 5 mph 77% 0 in 174 W/m2
13:10 55.6 °F 48.6 °F 30.1 in NW 2 mph 5 mph 77% 0 in 162 W/m2
13:15 55.8 °F 48.7 °F 30.1 in WNW 2 mph 3 mph 77% 0 in 141 W/m2
13:20 55.8 °F 48.9 °F 30.1 in West 0.9 mph 2 mph 78% 0 in 146 W/m2
13:25 55.6 °F 48.9 °F 30.1 in West 6 mph 7 mph 78% 0 in 141 W/m2
13:30 55.8 °F 48.9 °F 30.1 in WNW 0.9 mph 3 mph 78% 0 in 185 W/m2
13:35 55.8 °F 48.7 °F 30.1 in ENE 0.9 mph 2 mph 77% 0 in 352 W/m2
13:40 55.9 °F 48.9 °F 30.1 in West 2.9 mph 7 mph 77% 0 in 287 W/m2
13:45 56.1 °F 48.9 °F 30.1 in West 2 mph 3 mph 77% 0 in 125 W/m2
13:50 56.1 °F 48.9 °F 30.1 in West 4 mph 6 mph 77% 0 in 118 W/m2
13:55 56.5 °F 48.9 °F 30.1 in SSW 0.9 mph 4 mph 76% 0 in 120 W/m2
14:00 56.7 °F 49.1 °F 30.1 in WSW 2.9 mph 4 mph 76% 0 in 114 W/m2
14:05 56.7 °F 48.7 °F 30.1 in West 0.9 mph 4 mph 75% 0 in 125 W/m2
14:10 57 °F 49.5 °F 30.1 in North 2 mph 2 mph 76% 0 in 211 W/m2
14:15 57.6 °F 48.9 °F 30.1 in West 2.9 mph 7 mph 73% 0 in 285 W/m2
14:20 57.7 °F 48.7 °F 30.1 in West 2 mph 7 mph 72% 0 in 234 W/m2
14:25 57.9 °F 48.9 °F 30.1 in West 4 mph 8 mph 72% 0 in 181 W/m2
14:30 57.9 °F 48.9 °F 30.1 in WSW 4 mph 6 mph 72% 0 in 179 W/m2
14:35 57.7 °F 48.7 °F 30.1 in WSW 0.9 mph 8 mph 72% 0 in 132 W/m2
14:40 57.7 °F 49.1 °F 30.1 in WNW 4 mph 5 mph 73% 0 in 125 W/m2
14:45 57.7 °F 49.1 °F 30.1 in WNW 2.9 mph 4 mph 73% 0 in 125 W/m2
14:50 57.9 °F 49.3 °F 30.1 in WNW 2 mph 4 mph 73% 0 in 149 W/m2
14:55 57.9 °F 48.9 °F 30.1 in West 2.9 mph 7 mph 72% 0 in 104 W/m2
15:00 58.1 °F 49.5 °F 30.1 in WSW 4 mph 8 mph 73% 0 in 102 W/m2
15:05 58.3 °F 49.3 °F 30.1 in NW 2.9 mph 8 mph 72% 0 in 114 W/m2
15:10 58.5 °F 49.8 °F 30.1 in NW 2 mph 6 mph 73% 0 in 178 W/m2
15:15 58.6 °F 49.6 °F 30.1 in WSW 2.9 mph 9 mph 72% 0 in 216 W/m2
15:20 58.8 °F 49.8 °F 30.1 in WNW 0.9 mph 3 mph 72% 0 in 227 W/m2
15:25 59 °F 50 °F 30.1 in West 0.9 mph 2 mph 72% 0 in 146 W/m2
15:30 59.2 °F 49.8 °F 30.1 in WNW 2 mph 7 mph 71% 0 in 134 W/m2
15:35 59 °F 50 °F 30.1 in West 2 mph 3 mph 72% 0 in 128 W/m2
15:40 58.8 °F 49.8 °F 30.1 in WNW 0.9 mph 8 mph 72% 0 in 100 W/m2
15:45 58.6 °F 49.6 °F 30.1 in Calm   7 mph 72% 0 in 113 W/m2
15:50 58.6 °F 50 °F 30.1 in WSW 0.9 mph 5 mph 73% 0 in 121 W/m2
15:55 58.5 °F 49.8 °F 30.1 in West 2 mph 3 mph 73% 0 in 104 W/m2
16:00 58.3 °F 49.6 °F 30.1 in WNW 2 mph 3 mph 73% 0 in 88 W/m2
16:05 58.3 °F 50 °F 30.1 in WSW 2 mph 3 mph 74% 0 in 77 W/m2
16:10 58.3 °F 50 °F 30.1 in WNW 2 mph 4 mph 74% 0 in 111 W/m2
16:15 58.5 °F 50.2 °F 30.1 in Calm   3 mph 74% 0 in 65 W/m2
16:20 58.5 °F 50.2 °F 30.1 in West 2 mph 3 mph 74% 0 in 56 W/m2
16:25 58.5 °F 50.2 °F 30.1 in West 0.9 mph 2 mph 74% 0 in 56 W/m2
16:30 58.3 °F 50.4 °F 30.1 in Calm   3 mph 75% 0 in 53 W/m2
16:35 58.3 °F 50.4 °F 30.1 in West 4 mph 7 mph 75% 0 in 77 W/m2
16:40 58.3 °F 50.4 °F 30.1 in WSW 4 mph 4 mph 75% 0 in 51 W/m2
16:45 58.3 °F 50.4 °F 30.1 in West 0.9 mph 4 mph 75% 0 in 53 W/m2
16:50 58.5 °F 50.5 °F 30.1 in West 6 mph 8 mph 75% 0 in 113 W/m2
16:55 58.5 °F 50.5 °F 30.1 in West 2 mph 4 mph 75% 0 in 244 W/m2
17:00 58.3 °F 50.7 °F 30.1 in WNW 8.1 mph 10 mph 76% 0 in 69 W/m2
17:05 58.3 °F 50.4 °F 30.1 in WNW 2.9 mph 8 mph 75% 0 in 67 W/m2
17:10 58.3 °F 50.7 °F 30.1 in WSW 2 mph 10 mph 76% 0 in 79 W/m2
17:15 58.3 °F 50.4 °F 30.1 in WNW 2 mph 6 mph 75% 0 in 76 W/m2
17:20 58.1 °F 50.5 °F 30.1 in West 0.9 mph 4 mph 76% 0 in 79 W/m2
17:25 57.9 °F 50.4 °F 30.1 in West 0.9 mph 3 mph 76% 0 in 54 W/m2
17:30 57.7 °F 50.5 °F 30.1 in West 0.9 mph 2 mph 77% 0 in 49 W/m2
17:35 57.7 °F 50.5 °F 30.1 in West 2 mph 2 mph 77% 0 in 42 W/m2
17:40 57.6 °F 50.7 °F 30.1 in West 2 mph 3 mph 78% 0 in 44 W/m2
17:45 57.4 °F 50.5 °F 30.1 in West 2 mph 2 mph 78% 0 in 28 W/m2
17:50 57 °F 50.5 °F 30.1 in West 0.9 mph 2 mph 79% 0 in 30 W/m2
17:55 56.8 °F 50.4 °F 30.1 in West 2 mph 3 mph 79% 0 in 30 W/m2
18:01 56.5 °F 50 °F 30.1 in WSW 2.9 mph 6 mph 79% 0 in 26 W/m2
18:06 56.5 °F 50 °F 30.1 in West 2.9 mph 3 mph 79% 0 in 21 W/m2
18:11 56.1 °F 49.6 °F 30.1 in WSW 0.9 mph 4 mph 79% 0 in 21 W/m2
18:16 56.1 °F 50 °F 30.1 in West 2 mph 4 mph 80% 0 in 25 W/m2
18:21 55.9 °F 49.8 °F 30.1 in West 2 mph 3 mph 80% 0 in 23 W/m2
18:26 55.9 °F 50.2 °F 30.1 in West 2.9 mph 3 mph 81% 0 in 16 W/m2
18:31 55.8 °F 50 °F 30.1 in West 2.9 mph 3 mph 81% 0 in 12 W/m2
18:36 55.8 °F 50 °F 30.1 in West 2 mph 3 mph 81% 0 in 9 W/m2
18:41 55.6 °F 50.2 °F 30.1 in West 2 mph 4 mph 82% 0 in 7 W/m2
18:46 55.2 °F 49.8 °F 30.1 in WNW 2.9 mph 6 mph 82% 0 in 0 W/m2
18:51 55.2 °F 50.2 °F 30.1 in West 4 mph 4 mph 83% 0 in 0 W/m2
18:56 55 °F 50 °F 30.1 in West 2 mph 6 mph 83% 0 in 0 W/m2
19:01 55 °F 50 °F 30.1 in West 0.9 mph 4 mph 83% 0 in 0 W/m2
19:06 55 °F 50 °F 30.1 in Calm     83% 0 in 0 W/m2
19:11 55 °F 50.4 °F 30.1 in West 0.9 mph 4 mph 84% 0 in 0 W/m2
19:16 55 °F 50.4 °F 30.1 in West 0.9 mph 1 mph 84% 0 in 0 W/m2
19:21 54.9 °F 50.2 °F 30.1 in West 2 mph 2 mph 84% 0 in 0 W/m2
19:26 54.9 °F 50.4 °F 30.1 in WNW 2 mph 3 mph 85% 0 in 0 W/m2
19:31 54.9 °F 50.4 °F 30.1 in West 0.9 mph 2 mph 85% 0 in 0 W/m2
19:36 54.9 °F 50.4 °F 30.1 in West 0.9 mph 3 mph 85% 0 in 0 W/m2
19:41 54.9 °F 50.4 °F 30.1 in West 2 mph 2 mph 85% 0 in 0 W/m2
19:46 54.9 °F 50.4 °F 30.1 in West 2 mph 2 mph 85% 0 in 0 W/m2
19:51 54.9 °F 50.4 °F 30.1 in West 2 mph 3 mph 85% 0 in 0 W/m2
19:56 54.9 °F 50.4 °F 30.1 in Calm   1 mph 85% 0 in 0 W/m2
20:01 55 °F 50.5 °F 30.1 in NNW 2 mph 3 mph 85% 0 in 0 W/m2
20:06 54.9 °F 50.4 °F 30.1 in West 0.9 mph 3 mph 85% 0 in 0 W/m2
20:11 54.9 °F 50.7 °F 30.1 in West 2.9 mph 3 mph 86% 0 in 0 W/m2
20:16 54.7 °F 50.5 °F 30.1 in Calm     86% 0 in 0 W/m2
20:21 54.7 °F 50.9 °F 30.1 in North 0.9 mph 3 mph 87% 0 in 0 W/m2
20:26 54.7 °F 50.9 °F 30.1 in Calm   1 mph 87% 0 in 0 W/m2
20:31 54.5 °F 50.7 °F 30.1 in Calm   3 mph 87% 0 in 0 W/m2
20:36 54.3 °F 50.9 °F 30.1 in Calm     88% 0 in 0 W/m2
20:41 54.3 °F 50.9 °F 30.1 in NNW 0.9 mph 1 mph 88% 0 in 0 W/m2
20:46 54.1 °F 50.9 °F 30.1 in Calm   2 mph 89% 0 in 0 W/m2
20:51 54.3 °F 51.1 °F 30.1 in West 0.9 mph 2 mph 89% 0 in 0 W/m2
20:56 54.3 °F 51.1 °F 30.1 in NW 0.9 mph 2 mph 89% 0 in 0 W/m2
21:01 54.3 °F 51.1 °F 30.1 in Calm   1 mph 89% 0 in 0 W/m2
21:06 54.5 °F 51.3 °F 30.1 in NW 2.9 mph 4 mph 89% 0 in 0 W/m2
21:11 54.5 °F 51.3 °F 30.1 in Calm   1 mph 89% 0 in 0 W/m2
21:16 54.3 °F 51.1 °F 30.1 in Calm   4 mph 89% 0 in 0 W/m2
21:21 54.5 °F 51.3 °F 30.1 in WNW 0.9 mph 4 mph 89% 0 in 0 W/m2
21:26 54.5 °F 51.3 °F 30.1 in East 2.9 mph 3 mph 89% 0 in 0 W/m2
21:31 54.5 °F 51.3 °F 30.1 in North 0.9 mph 2 mph 89% 0 in 0 W/m2
21:36 54.3 °F 51.1 °F 30.1 in Calm   1 mph 89% 0 in 0 W/m2
21:41 54.3 °F 51.1 °F 30.1 in NNE 0.9 mph 4 mph 89% 0 in 0 W/m2
21:46 54.3 °F 51.1 °F 30.1 in NE 2 mph 3 mph 89% 0 in 0 W/m2
21:51 54.3 °F 51.1 °F 30.1 in Calm   2 mph 89% 0 in 0 W/m2
21:56 54.1 °F 50.9 °F 30.1 in Calm     89% 0 in 0 W/m2
22:01 54.1 °F 50.7 °F 30.1 in Calm   2 mph 88% 0 in 0 W/m2
22:06 54 °F 50.5 °F 30.1 in Calm   1 mph 88% 0 in 0 W/m2
22:11 54 °F 50.5 °F 30.1 in Calm   1 mph 88% 0 in 0 W/m2
22:16 53.8 °F 50.4 °F 30.1 in Calm     88% 0 in 0 W/m2
22:21 53.8 °F 50.4 °F 30.1 in North 0.9 mph 3 mph 88% 0 in 0 W/m2
22:26 53.6 °F 49.8 °F 30.1 in ENE 2.9 mph 4 mph 87% 0 in 0 W/m2
22:31 53.4 °F 49.6 °F 30.1 in Calm   3 mph 87% 0 in 0 W/m2
22:36 53.4 °F 49.6 °F 30.1 in East 2 mph 4 mph 87% 0 in 0 W/m2
22:41 53.2 °F 49.5 °F 30.1 in NE 0.9 mph 1 mph 87% 0 in 0 W/m2
22:46 53.1 °F 49.3 °F 30.1 in ENE 0.9 mph 2 mph 87% 0 in 0 W/m2
22:51 53.1 °F 49.3 °F 30.1 in ENE 0.9 mph 2 mph 87% 0 in 0 W/m2
22:57 52.9 °F 49.5 °F 30.1 in NNE 0.9 mph 1 mph 88% 0 in 0 W/m2
23:02 52.7 °F 49.3 °F 30.1 in ENE 2 mph 3 mph 88% 0 in 0 W/m2
23:07 52.5 °F 49.1 °F 30.1 in East 2 mph 2 mph 88% 0 in 0 W/m2
23:12 52.5 °F 49.1 °F 30.1 in NNW 0.9 mph 3 mph 88% 0 in 0 W/m2
23:17 52.5 °F 49.1 °F 30.1 in SSE 0.9 mph 3 mph 88% 0 in 0 W/m2
23:22 52.3 °F 48.9 °F 30.1 in Calm   1 mph 88% 0 in 0 W/m2
23:27 52.3 °F 48.9 °F 30.1 in Calm   3 mph 88% 0 in 0 W/m2
23:32 52.2 °F 49.1 °F 30.1 in Calm   3 mph 89% 0 in 0 W/m2
23:37 52.2 °F 49.1 °F 30.1 in SSW 0.9 mph 2 mph 89% 0 in 0 W/m2
23:42 52 °F 48.9 °F 30.1 in NW 2 mph 2 mph 89% 0 in 0 W/m2
23:47 52 °F 48.9 °F 30.1 in Calm   2 mph 89% 0 in 0 W/m2
23:52 52 °F 48.9 °F 30.1 in East 0.9 mph 2 mph 89% 0 in 0 W/m2
23:57 51.8 °F 48.7 °F 30.1 in Calm   1 mph 89% 0 in 0 W/m2
Juneau County Weather
Compliments of Weather Underground - 4 mb